sensor_id;sensor_type;location;lat;lon;timestamp;pressure;altitude;pressure_sealevel;temperature;humidity
70833;BME280;58452;59.418;17.962;2023-03-03T00:01:29;101316.66;;;3.25;55.00
70833;BME280;58452;59.418;17.962;2023-03-03T00:03:56;101309.22;;;3.21;55.28
70833;BME280;58452;59.418;17.962;2023-03-03T00:06:22;101317.06;;;3.18;54.97
70833;BME280;58452;59.418;17.962;2023-03-03T00:08:49;101301.00;;;3.16;55.17
70833;BME280;58452;59.418;17.962;2023-03-03T00:11:15;101299.53;;;3.12;56.13
70833;BME280;58452;59.418;17.962;2023-03-03T00:13:51;101298.88;;;3.08;55.31
70833;BME280;58452;59.418;17.962;2023-03-03T00:16:38;101304.88;;;3.07;55.24
70833;BME280;58452;59.418;17.962;2023-03-03T00:19:17;101307.81;;;3.00;55.59
70833;BME280;58452;59.418;17.962;2023-03-03T00:21:50;101311.25;;;2.99;55.71
70833;BME280;58452;59.418;17.962;2023-03-03T00:24:24;101306.91;;;3.01;55.73
70833;BME280;58452;59.418;17.962;2023-03-03T00:26:55;101313.97;;;2.95;55.80
70833;BME280;58452;59.418;17.962;2023-03-03T00:29:34;101297.19;;;2.91;55.85
70833;BME280;58452;59.418;17.962;2023-03-03T00:34:44;101293.06;;;2.89;56.49
70833;BME280;58452;59.418;17.962;2023-03-03T00:37:37;101293.91;;;2.89;56.46
70833;BME280;58452;59.418;17.962;2023-03-03T00:40:22;101294.03;;;2.86;56.50
70833;BME280;58452;59.418;17.962;2023-03-03T00:42:53;101290.97;;;2.80;57.36
70833;BME280;58452;59.418;17.962;2023-03-03T00:48:25;101302.00;;;2.80;56.98
70833;BME280;58452;59.418;17.962;2023-03-03T00:50:58;101296.56;;;2.71;57.16
70833;BME280;58452;59.418;17.962;2023-03-03T00:53:26;101291.38;;;2.72;57.32
70833;BME280;58452;59.418;17.962;2023-03-03T00:55:52;101292.97;;;2.75;57.09
70833;BME280;58452;59.418;17.962;2023-03-03T00:58:19;101286.44;;;2.69;57.84
70833;BME280;58452;59.418;17.962;2023-03-03T01:00:47;101289.59;;;2.74;57.55
70833;BME280;58452;59.418;17.962;2023-03-03T01:03:16;101284.47;;;2.74;57.62
70833;BME280;58452;59.418;17.962;2023-03-03T01:05:42;101297.44;;;2.70;57.64
70833;BME280;58452;59.418;17.962;2023-03-03T01:08:08;101283.16;;;2.67;57.66
70833;BME280;58452;59.418;17.962;2023-03-03T01:10:38;101278.06;;;2.67;58.39
70833;BME280;58452;59.418;17.962;2023-03-03T01:13:06;101281.66;;;2.63;57.38
70833;BME280;58452;59.418;17.962;2023-03-03T01:15:32;101282.63;;;2.61;57.59
70833;BME280;58452;59.418;17.962;2023-03-03T01:17:57;101281.00;;;2.60;57.61
70833;BME280;58452;59.418;17.962;2023-03-03T01:20:23;101283.03;;;2.53;58.20
70833;BME280;58452;59.418;17.962;2023-03-03T01:22:49;101282.72;;;2.59;57.76
70833;BME280;58452;59.418;17.962;2023-03-03T01:25:14;101285.56;;;2.53;58.11
70833;BME280;58452;59.418;17.962;2023-03-03T01:27:40;101277.94;;;2.53;57.46
70833;BME280;58452;59.418;17.962;2023-03-03T01:30:06;101272.13;;;2.50;57.70
70833;BME280;58452;59.418;17.962;2023-03-03T01:32:32;101269.75;;;2.46;57.37
70833;BME280;58452;59.418;17.962;2023-03-03T01:34:58;101275.84;;;2.44;58.08
70833;BME280;58452;59.418;17.962;2023-03-03T01:37:23;101267.47;;;2.42;58.07
70833;BME280;58452;59.418;17.962;2023-03-03T01:39:50;101277.72;;;2.40;58.01
70833;BME280;58452;59.418;17.962;2023-03-03T01:42:16;101273.59;;;2.38;57.97
70833;BME280;58452;59.418;17.962;2023-03-03T01:44:42;101267.91;;;2.33;58.15
70833;BME280;58452;59.418;17.962;2023-03-03T01:47:20;101257.50;;;2.37;57.23
70833;BME280;58452;59.418;17.962;2023-03-03T01:50:03;101260.25;;;2.33;58.05
70833;BME280;58452;59.418;17.962;2023-03-03T01:52:38;101262.88;;;2.31;57.83
70833;BME280;58452;59.418;17.962;2023-03-03T01:55:09;101272.84;;;2.36;57.94
70833;BME280;58452;59.418;17.962;2023-03-03T01:57:40;101256.97;;;2.31;57.26
70833;BME280;58452;59.418;17.962;2023-03-03T02:00:09;101255.22;;;2.31;57.78
70833;BME280;58452;59.418;17.962;2023-03-03T02:02:35;101247.84;;;2.27;57.91
70833;BME280;58452;59.418;17.962;2023-03-03T02:05:01;101242.06;;;2.23;57.74
70833;BME280;58452;59.418;17.962;2023-03-03T02:07:27;101243.84;;;2.21;58.01
70833;BME280;58452;59.418;17.962;2023-03-03T02:10:08;101249.63;;;2.25;57.53
70833;BME280;58452;59.418;17.962;2023-03-03T02:12:44;101263.41;;;2.21;57.96
70833;BME280;58452;59.418;17.962;2023-03-03T02:17:44;101243.03;;;2.21;57.71
70833;BME280;58452;59.418;17.962;2023-03-03T02:20:15;101250.91;;;2.16;57.84
70833;BME280;58452;59.418;17.962;2023-03-03T02:22:50;101246.88;;;2.12;58.63
70833;BME280;58452;59.418;17.962;2023-03-03T02:25:31;101250.97;;;2.15;57.64
70833;BME280;58452;59.418;17.962;2023-03-03T02:27:58;101245.81;;;2.16;57.55
70833;BME280;58452;59.418;17.962;2023-03-03T02:30:25;101240.81;;;2.15;57.19
70833;BME280;58452;59.418;17.962;2023-03-03T02:32:50;101251.13;;;2.12;57.64
70833;BME280;58452;59.418;17.962;2023-03-03T02:35:42;101257.72;;;2.16;57.68
70833;BME280;58452;59.418;17.962;2023-03-03T02:38:16;101260.44;;;2.13;57.91
70833;BME280;58452;59.418;17.962;2023-03-03T02:44:00;101257.13;;;2.11;57.84
70833;BME280;58452;59.418;17.962;2023-03-03T02:46:32;101258.09;;;2.08;58.30
70833;BME280;58452;59.418;17.962;2023-03-03T02:48:58;101259.88;;;2.06;57.80
70833;BME280;58452;59.418;17.962;2023-03-03T02:51:24;101265.97;;;2.04;57.82
70833;BME280;58452;59.418;17.962;2023-03-03T02:53:50;101257.44;;;2.05;57.44
70833;BME280;58452;59.418;17.962;2023-03-03T02:56:15;101269.25;;;2.06;57.69
70833;BME280;58452;59.418;17.962;2023-03-03T02:58:41;101264.31;;;2.03;57.88
70833;BME280;58452;59.418;17.962;2023-03-03T03:01:06;101263.41;;;2.04;58.36
70833;BME280;58452;59.418;17.962;2023-03-03T03:03:32;101252.50;;;2.02;57.88
70833;BME280;58452;59.418;17.962;2023-03-03T03:05:57;101256.81;;;2.00;57.94
70833;BME280;58452;59.418;17.962;2023-03-03T03:08:23;101254.22;;;2.01;57.69
70833;BME280;58452;59.418;17.962;2023-03-03T03:10:48;101255.41;;;1.94;58.66
70833;BME280;58452;59.418;17.962;2023-03-03T03:13:14;101262.94;;;1.95;57.99
70833;BME280;58452;59.418;17.962;2023-03-03T03:15:39;101255.31;;;1.95;57.86
70833;BME280;58452;59.418;17.962;2023-03-03T03:18:05;101256.19;;;1.94;58.48
70833;BME280;58452;59.418;17.962;2023-03-03T03:20:35;101247.84;;;1.92;58.55
70833;BME280;58452;59.418;17.962;2023-03-03T03:23:01;101246.44;;;1.87;58.63
70833;BME280;58452;59.418;17.962;2023-03-03T03:25:26;101238.84;;;1.85;58.30
70833;BME280;58452;59.418;17.962;2023-03-03T03:27:52;101250.59;;;1.88;58.15
70833;BME280;58452;59.418;17.962;2023-03-03T03:30:17;101244.09;;;1.82;58.25
70833;BME280;58452;59.418;17.962;2023-03-03T03:32:45;101237.34;;;1.81;58.91
70833;BME280;58452;59.418;17.962;2023-03-03T03:35:10;101238.22;;;1.80;58.70
70833;BME280;58452;59.418;17.962;2023-03-03T03:37:36;101228.88;;;1.81;58.37
70833;BME280;58452;59.418;17.962;2023-03-03T03:40:02;101232.25;;;1.81;58.98
70833;BME280;58452;59.418;17.962;2023-03-03T03:42:27;101244.47;;;1.75;59.07
70833;BME280;58452;59.418;17.962;2023-03-03T03:44:52;101241.22;;;1.71;59.21
70833;BME280;58452;59.418;17.962;2023-03-03T03:47:18;101243.00;;;1.69;58.76
70833;BME280;58452;59.418;17.962;2023-03-03T03:49:43;101237.03;;;1.70;59.03
70833;BME280;58452;59.418;17.962;2023-03-03T03:52:09;101233.19;;;1.62;58.87
70833;BME280;58452;59.418;17.962;2023-03-03T03:54:34;101232.25;;;1.64;58.76
70833;BME280;58452;59.418;17.962;2023-03-03T03:57:00;101247.66;;;1.61;58.86
70833;BME280;58452;59.418;17.962;2023-03-03T03:59:26;101239.19;;;1.61;59.25
70833;BME280;58452;59.418;17.962;2023-03-03T04:01:51;101235.97;;;1.57;59.36
70833;BME280;58452;59.418;17.962;2023-03-03T04:04:16;101233.34;;;1.59;59.12
70833;BME280;58452;59.418;17.962;2023-03-03T04:06:42;101227.88;;;1.49;59.48
70833;BME280;58452;59.418;17.962;2023-03-03T04:09:07;101221.91;;;1.50;59.48
70833;BME280;58452;59.418;17.962;2023-03-03T04:11:33;101225.34;;;1.49;59.36
70833;BME280;58452;59.418;17.962;2023-03-03T04:13:58;101222.78;;;1.49;59.44
70833;BME280;58452;59.418;17.962;2023-03-03T04:16:24;101223.09;;;1.43;59.87
70833;BME280;58452;59.418;17.962;2023-03-03T04:18:49;101216.50;;;1.39;60.17
70833;BME280;58452;59.418;17.962;2023-03-03T04:21:15;101221.63;;;1.37;60.37
70833;BME280;58452;59.418;17.962;2023-03-03T04:23:41;101214.00;;;1.37;60.11
70833;BME280;58452;59.418;17.962;2023-03-03T04:26:07;101211.53;;;1.36;60.26
70833;BME280;58452;59.418;17.962;2023-03-03T04:28:33;101224.19;;;1.37;59.87
70833;BME280;58452;59.418;17.962;2023-03-03T04:30:59;101216.75;;;1.33;59.88
70833;BME280;58452;59.418;17.962;2023-03-03T04:33:24;101221.84;;;1.33;59.80
70833;BME280;58452;59.418;17.962;2023-03-03T04:35:50;101220.41;;;1.27;59.93
70833;BME280;58452;59.418;17.962;2023-03-03T04:38:16;101216.91;;;1.30;60.30
70833;BME280;58452;59.418;17.962;2023-03-03T04:40:41;101213.75;;;1.25;60.32
70833;BME280;58452;59.418;17.962;2023-03-03T04:43:08;101218.81;;;1.25;60.37
70833;BME280;58452;59.418;17.962;2023-03-03T04:45:34;101215.41;;;1.26;60.46
70833;BME280;58452;59.418;17.962;2023-03-03T04:47:59;101218.97;;;1.22;60.18
70833;BME280;58452;59.418;17.962;2023-03-03T04:50:25;101212.38;;;1.18;60.38
70833;BME280;58452;59.418;17.962;2023-03-03T04:52:51;101204.00;;;1.16;60.83
70833;BME280;58452;59.418;17.962;2023-03-03T04:55:16;101197.13;;;1.18;61.01
70833;BME280;58452;59.418;17.962;2023-03-03T04:57:42;101197.94;;;1.18;60.65
70833;BME280;58452;59.418;17.962;2023-03-03T05:00:09;101194.59;;;1.18;60.37
70833;BME280;58452;59.418;17.962;2023-03-03T05:02:38;101188.03;;;1.14;60.46
70833;BME280;58452;59.418;17.962;2023-03-03T05:05:04;101182.16;;;1.12;61.43
70833;BME280;58452;59.418;17.962;2023-03-03T05:07:30;101179.56;;;1.13;60.96
70833;BME280;58452;59.418;17.962;2023-03-03T05:09:55;101180.66;;;1.08;61.64
70833;BME280;58452;59.418;17.962;2023-03-03T05:12:20;101174.69;;;1.09;61.21
70833;BME280;58452;59.418;17.962;2023-03-03T05:14:46;101180.66;;;1.08;61.06
70833;BME280;58452;59.418;17.962;2023-03-03T05:17:11;101173.03;;;1.08;61.41
70833;BME280;58452;59.418;17.962;2023-03-03T05:19:37;101177.38;;;1.06;61.21
70833;BME280;58452;59.418;17.962;2023-03-03T05:22:02;101180.81;;;1.05;61.34
70833;BME280;58452;59.418;17.962;2023-03-03T05:24:28;101169.59;;;1.09;60.81
70833;BME280;58452;59.418;17.962;2023-03-03T05:26:53;101164.56;;;1.07;61.62
70833;BME280;58452;59.418;17.962;2023-03-03T05:29:19;101167.22;;;1.06;61.35
70833;BME280;58452;59.418;17.962;2023-03-03T05:31:44;101159.63;;;1.04;61.30
70833;BME280;58452;59.418;17.962;2023-03-03T05:34:10;101161.22;;;1.07;61.45
70833;BME280;58452;59.418;17.962;2023-03-03T05:36:35;101150.94;;;1.10;61.43
70833;BME280;58452;59.418;17.962;2023-03-03T05:39:01;101156.13;;;1.07;61.48
70833;BME280;58452;59.418;17.962;2023-03-03T05:41:26;101169.81;;;1.04;61.55
70833;BME280;58452;59.418;17.962;2023-03-03T05:43:52;101151.88;;;1.07;61.57
70833;BME280;58452;59.418;17.962;2023-03-03T05:46:17;101172.44;;;1.03;62.11
70833;BME280;58452;59.418;17.962;2023-03-03T05:48:43;101169.91;;;1.03;61.82
70833;BME280;58452;59.418;17.962;2023-03-03T05:51:09;101171.38;;;1.07;61.86
70833;BME280;58452;59.418;17.962;2023-03-03T05:53:34;101176.84;;;0.99;62.33
70833;BME280;58452;59.418;17.962;2023-03-03T05:56:00;101172.69;;;0.96;62.19
70833;BME280;58452;59.418;17.962;2023-03-03T05:58:25;101160.88;;;0.95;62.24
70833;BME280;58452;59.418;17.962;2023-03-03T06:00:51;101155.78;;;0.95;62.58
70833;BME280;58452;59.418;17.962;2023-03-03T06:03:16;101165.97;;;0.95;62.59
70833;BME280;58452;59.418;17.962;2023-03-03T06:05:42;101159.25;;;0.94;62.75
70833;BME280;58452;59.418;17.962;2023-03-03T06:08:07;101156.78;;;0.93;62.36
70833;BME280;58452;59.418;17.962;2023-03-03T06:10:34;101157.44;;;0.96;62.26
70833;BME280;58452;59.418;17.962;2023-03-03T06:12:59;101152.66;;;0.90;62.54
70833;BME280;58452;59.418;17.962;2023-03-03T06:15:25;101152.56;;;0.92;62.64
70833;BME280;58452;59.418;17.962;2023-03-03T06:17:50;101147.72;;;0.87;62.51
70833;BME280;58452;59.418;17.962;2023-03-03T06:20:16;101154.31;;;0.91;63.00
70833;BME280;58452;59.418;17.962;2023-03-03T06:22:41;101145.78;;;0.92;62.82
70833;BME280;58452;59.418;17.962;2023-03-03T06:25:07;101150.84;;;0.92;62.31
70833;BME280;58452;59.418;17.962;2023-03-03T06:27:33;101153.41;;;0.92;62.16
70833;BME280;58452;59.418;17.962;2023-03-03T06:29:58;101139.13;;;0.90;62.92
70833;BME280;58452;59.418;17.962;2023-03-03T06:32:24;101133.84;;;0.94;62.27
70833;BME280;58452;59.418;17.962;2023-03-03T06:34:49;101138.78;;;0.97;62.12
70833;BME280;58452;59.418;17.962;2023-03-03T06:37:15;101141.31;;;0.97;62.02
70833;BME280;58452;59.418;17.962;2023-03-03T06:39:40;101146.19;;;1.02;62.23
70833;BME280;58452;59.418;17.962;2023-03-03T06:42:06;101152.84;;;1.05;62.37
70833;BME280;58452;59.418;17.962;2023-03-03T06:44:34;101150.16;;;1.08;62.16
70833;BME280;58452;59.418;17.962;2023-03-03T06:46:59;101145.06;;;1.08;61.84
70833;BME280;58452;59.418;17.962;2023-03-03T06:49:25;101142.25;;;1.14;62.04
70833;BME280;58452;59.418;17.962;2023-03-03T06:51:50;101146.44;;;1.15;61.10
70833;BME280;58452;59.418;17.962;2023-03-03T06:54:23;101137.91;;;1.16;61.84
70833;BME280;58452;59.418;17.962;2023-03-03T06:56:56;101140.25;;;1.20;61.40
70833;BME280;58452;59.418;17.962;2023-03-03T06:59:22;101144.38;;;1.23;61.34
70833;BME280;58452;59.418;17.962;2023-03-03T07:01:49;101154.22;;;1.29;60.97
70833;BME280;58452;59.418;17.962;2023-03-03T07:04:27;101144.75;;;1.32;61.63
70833;BME280;58452;59.418;17.962;2023-03-03T07:09:43;101142.97;;;1.34;61.53
70833;BME280;58452;59.418;17.962;2023-03-03T07:12:10;101151.31;;;1.36;61.14
70833;BME280;58452;59.418;17.962;2023-03-03T07:14:41;101145.19;;;1.40;60.71
70833;BME280;58452;59.418;17.962;2023-03-03T07:17:13;101136.31;;;1.49;61.00
70833;BME280;58452;59.418;17.962;2023-03-03T07:19:39;101129.31;;;1.54;60.42
70833;BME280;58452;59.418;17.962;2023-03-03T07:22:20;101124.06;;;1.57;60.83
70833;BME280;58452;59.418;17.962;2023-03-03T07:24:53;101118.59;;;1.65;60.27
70833;BME280;58452;59.418;17.962;2023-03-03T07:27:29;101117.47;;;1.70;60.01
70833;BME280;58452;59.418;17.962;2023-03-03T07:30:20;101118.06;;;1.75;59.92
70833;BME280;58452;59.418;17.962;2023-03-03T07:32:48;101113.72;;;1.77;59.93
70833;BME280;58452;59.418;17.962;2023-03-03T07:37:53;101112.50;;;1.84;59.66
70833;BME280;58452;59.418;17.962;2023-03-03T07:40:37;101106.28;;;1.90;60.01
70833;BME280;58452;59.418;17.962;2023-03-03T07:45:59;101095.25;;;2.07;59.53
70833;BME280;58452;59.418;17.962;2023-03-03T07:48:34;101078.69;;;2.15;59.52
70833;BME280;58452;59.418;17.962;2023-03-03T07:51:04;101083.94;;;2.28;58.88
70833;BME280;58452;59.418;17.962;2023-03-03T07:53:33;101078.16;;;2.41;58.41
70833;BME280;58452;59.418;17.962;2023-03-03T07:56:00;101071.72;;;2.50;58.41
70833;BME280;58452;59.418;17.962;2023-03-03T07:58:39;101057.44;;;2.63;58.27
70833;BME280;58452;59.418;17.962;2023-03-03T08:03:56;101064.47;;;2.89;57.41
70833;BME280;58452;59.418;17.962;2023-03-03T08:11:34;101035.13;;;3.12;57.02
70833;BME280;58452;59.418;17.962;2023-03-03T08:14:09;101022.31;;;3.14;55.98
70833;BME280;58452;59.418;17.962;2023-03-03T08:16:39;101037.25;;;3.20;56.60
70833;BME280;58452;59.418;17.962;2023-03-03T08:19:05;101027.69;;;3.23;55.54
70833;BME280;58452;59.418;17.962;2023-03-03T08:21:32;101026.72;;;3.26;56.21
70833;BME280;58452;59.418;17.962;2023-03-03T08:23:59;101028.19;;;3.30;56.38
70833;BME280;58452;59.418;17.962;2023-03-03T08:26:25;101021.44;;;3.29;55.94
70833;BME280;58452;59.418;17.962;2023-03-03T08:28:52;101014.31;;;3.34;56.09
70833;BME280;58452;59.418;17.962;2023-03-03T08:31:18;101019.59;;;3.31;55.73
70833;BME280;58452;59.418;17.962;2023-03-03T08:33:44;101011.13;;;3.30;55.63
70833;BME280;58452;59.418;17.962;2023-03-03T08:36:11;101003.97;;;3.37;55.86
70833;BME280;58452;59.418;17.962;2023-03-03T08:38:37;101014.16;;;3.37;55.57
70833;BME280;58452;59.418;17.962;2023-03-03T08:41:04;101003.78;;;3.40;55.84
70833;BME280;58452;59.418;17.962;2023-03-03T08:43:29;101005.75;;;3.35;55.42
70833;BME280;58452;59.418;17.962;2023-03-03T08:45:58;101014.16;;;3.37;56.11
70833;BME280;58452;59.418;17.962;2023-03-03T08:48:25;101015.53;;;3.42;55.89
70833;BME280;58452;59.418;17.962;2023-03-03T08:50:51;101005.88;;;3.48;56.20
70833;BME280;58452;59.418;17.962;2023-03-03T08:53:17;101005.06;;;3.47;55.68
70833;BME280;58452;59.418;17.962;2023-03-03T08:55:44;100994.59;;;3.52;56.21
70833;BME280;58452;59.418;17.962;2023-03-03T08:58:09;101000.66;;;3.49;55.53
70833;BME280;58452;59.418;17.962;2023-03-03T09:00:35;100986.63;;;3.56;55.35
70833;BME280;58452;59.418;17.962;2023-03-03T09:03:00;100978.81;;;3.59;55.65
70833;BME280;58452;59.418;17.962;2023-03-03T09:05:26;100987.19;;;3.61;54.65
70833;BME280;58452;59.418;17.962;2023-03-03T09:07:52;100978.66;;;3.62;54.96
70833;BME280;58452;59.418;17.962;2023-03-03T09:10:21;100974.16;;;3.66;55.72
70833;BME280;58452;59.418;17.962;2023-03-03T09:12:52;100961.50;;;3.64;55.13
70833;BME280;58452;59.418;17.962;2023-03-03T09:15:27;100951.84;;;3.69;55.18
70833;BME280;58452;59.418;17.962;2023-03-03T09:17:57;100947.09;;;3.77;55.22
70833;BME280;58452;59.418;17.962;2023-03-03T09:20:36;100946.72;;;3.83;54.45
70833;BME280;58452;59.418;17.962;2023-03-03T09:25:56;100927.56;;;3.90;54.22
70833;BME280;58452;59.418;17.962;2023-03-03T09:28:25;100929.19;;;3.91;54.99
70833;BME280;58452;59.418;17.962;2023-03-03T09:30:53;100916.28;;;3.80;54.71
70833;BME280;58452;59.418;17.962;2023-03-03T09:35:51;100893.25;;;3.94;54.43
70833;BME280;58452;59.418;17.962;2023-03-03T09:43:50;100877.03;;;3.96;54.72
70833;BME280;58452;59.418;17.962;2023-03-03T09:49:35;100855.16;;;3.91;54.61
70833;BME280;58452;59.418;17.962;2023-03-03T09:52:37;100857.72;;;3.91;54.54
70833;BME280;58452;59.418;17.962;2023-03-03T09:55:52;100850.19;;;4.03;55.19
70833;BME280;58452;59.418;17.962;2023-03-03T10:03:32;100842.63;;;4.01;53.66
70833;BME280;58452;59.418;17.962;2023-03-03T10:12:09;100845.72;;;4.06;55.32
70833;BME280;58452;59.418;17.962;2023-03-03T10:17:51;100854.06;;;3.96;58.00
70833;BME280;58452;59.418;17.962;2023-03-03T10:25:41;100833.00;;;3.92;58.47
70833;BME280;58452;59.418;17.962;2023-03-03T10:28:44;100835.22;;;3.84;59.71
70833;BME280;58452;59.418;17.962;2023-03-03T10:31:22;100837.34;;;3.63;61.72
70833;BME280;58452;59.418;17.962;2023-03-03T10:49:36;100834.16;;;1.87;82.69
70833;BME280;58452;59.418;17.962;2023-03-03T10:58:18;100802.41;;;1.94;85.59
70833;BME280;58452;59.418;17.962;2023-03-03T11:06:36;100767.78;;;1.76;87.04
70833;BME280;58452;59.418;17.962;2023-03-03T11:14:30;100735.28;;;1.65;88.17
70833;BME280;58452;59.418;17.962;2023-03-03T11:17:04;100731.84;;;1.66;87.85
70833;BME280;58452;59.418;17.962;2023-03-03T11:22:41;100720.38;;;1.59;88.27
70833;BME280;58452;59.418;17.962;2023-03-03T11:33:06;100684.94;;;1.56;87.86
70833;BME280;58452;59.418;17.962;2023-03-03T11:40:47;100657.16;;;1.53;88.98
70833;BME280;58452;59.418;17.962;2023-03-03T11:43:21;100653.41;;;1.59;88.65
70833;BME280;58452;59.418;17.962;2023-03-03T11:45:55;100648.97;;;1.62;88.78
70833;BME280;58452;59.418;17.962;2023-03-03T11:51:22;100645.03;;;1.72;88.51
70833;BME280;58452;59.418;17.962;2023-03-03T11:56:22;100617.94;;;1.71;88.04
70833;BME280;58452;59.418;17.962;2023-03-03T12:04:12;100565.63;;;1.95;87.77
70833;BME280;58452;59.418;17.962;2023-03-03T12:09:54;100544.91;;;2.02;87.33
70833;BME280;58452;59.418;17.962;2023-03-03T12:15:12;100519.63;;;1.98;87.06
70833;BME280;58452;59.418;17.962;2023-03-03T12:25:46;100489.06;;;1.98;86.33
70833;BME280;58452;59.418;17.962;2023-03-03T12:28:22;100478.75;;;2.02;86.50
70833;BME280;58452;59.418;17.962;2023-03-03T12:31:20;100479.63;;;2.01;86.29
70833;BME280;58452;59.418;17.962;2023-03-03T12:45:25;100457.91;;;2.36;82.42
70833;BME280;58452;59.418;17.962;2023-03-03T12:48:01;100435.31;;;2.44;81.54
70833;BME280;58452;59.418;17.962;2023-03-03T12:53:28;100435.38;;;2.69;78.52
70833;BME280;58452;59.418;17.962;2023-03-03T12:56:04;100420.50;;;2.76;76.28
70833;BME280;58452;59.418;17.962;2023-03-03T12:59:02;100421.44;;;2.87;75.98
70833;BME280;58452;59.418;17.962;2023-03-03T13:06:57;100394.53;;;3.09;71.86
70833;BME280;58452;59.418;17.962;2023-03-03T13:15:11;100360.16;;;3.27;67.40
70833;BME280;58452;59.418;17.962;2023-03-03T13:18:02;100357.19;;;3.33;65.13
70833;BME280;58452;59.418;17.962;2023-03-03T13:20:57;100338.91;;;3.39;64.08
70833;BME280;58452;59.418;17.962;2023-03-03T13:25:58;100334.81;;;3.49;61.35
70833;BME280;58452;59.418;17.962;2023-03-03T13:31:21;100310.72;;;3.53;59.54
70833;BME280;58452;59.418;17.962;2023-03-03T13:33:55;100310.00;;;3.51;59.64
70833;BME280;58452;59.418;17.962;2023-03-03T13:36:24;100293.56;;;3.55;59.66
70833;BME280;58452;59.418;17.962;2023-03-03T13:38:54;100290.06;;;3.56;58.95
70833;BME280;58452;59.418;17.962;2023-03-03T13:41:32;100285.31;;;3.75;56.97
70833;BME280;58452;59.418;17.962;2023-03-03T13:52:32;100224.22;;;4.64;52.69
70833;BME280;58452;59.418;17.962;2023-03-03T13:55:11;100224.47;;;4.72;52.90
70833;BME280;58452;59.418;17.962;2023-03-03T14:05:33;100202.97;;;4.75;51.06
70833;BME280;58452;59.418;17.962;2023-03-03T14:17:02;100178.69;;;4.80;51.17
70833;BME280;58452;59.418;17.962;2023-03-03T14:19:43;100184.22;;;4.85;50.87
70833;BME280;58452;59.418;17.962;2023-03-03T14:25:06;100181.44;;;4.88;50.50
70833;BME280;58452;59.418;17.962;2023-03-03T14:30:36;100176.88;;;5.03;49.53
70833;BME280;58452;59.418;17.962;2023-03-03T14:35:41;100144.16;;;5.18;49.84
70833;BME280;58452;59.418;17.962;2023-03-03T14:40:34;100147.38;;;5.31;48.99
70833;BME280;58452;59.418;17.962;2023-03-03T14:43:04;100156.09;;;5.28;48.80
70833;BME280;58452;59.418;17.962;2023-03-03T14:45:42;100161.59;;;5.24;48.54
70833;BME280;58452;59.418;17.962;2023-03-03T14:48:23;100157.94;;;5.06;49.35
70833;BME280;58452;59.418;17.962;2023-03-03T14:50:56;100148.38;;;5.08;49.10
70833;BME280;58452;59.418;17.962;2023-03-03T14:53:38;100152.13;;;4.92;48.80
70833;BME280;58452;59.418;17.962;2023-03-03T14:56:23;100155.22;;;4.75;49.74
70833;BME280;58452;59.418;17.962;2023-03-03T15:01:37;100148.03;;;4.58;51.08
70833;BME280;58452;59.418;17.962;2023-03-03T15:06:50;100140.72;;;4.42;51.33
70833;BME280;58452;59.418;17.962;2023-03-03T15:09:19;100139.44;;;4.37;51.00
70833;BME280;58452;59.418;17.962;2023-03-03T15:11:50;100142.22;;;4.34;51.99
70833;BME280;58452;59.418;17.962;2023-03-03T15:14:17;100153.16;;;4.25;52.85
70833;BME280;58452;59.418;17.962;2023-03-03T15:16:44;100125.75;;;4.27;51.82
70833;BME280;58452;59.418;17.962;2023-03-03T15:21:58;100144.78;;;4.23;52.45
70833;BME280;58452;59.418;17.962;2023-03-03T15:24:44;100130.16;;;4.25;51.72
70833;BME280;58452;59.418;17.962;2023-03-03T15:27:26;100125.75;;;4.27;52.00
70833;BME280;58452;59.418;17.962;2023-03-03T15:33:11;100119.94;;;4.25;51.73
70833;BME280;58452;59.418;17.962;2023-03-03T15:39:00;100109.50;;;4.28;51.49
70833;BME280;58452;59.418;17.962;2023-03-03T15:41:42;100117.84;;;4.30;51.09
70833;BME280;58452;59.418;17.962;2023-03-03T15:52:46;100136.53;;;4.19;51.83
70833;BME280;58452;59.418;17.962;2023-03-03T15:55:37;100103.56;;;4.16;52.23
70833;BME280;58452;59.418;17.962;2023-03-03T15:58:43;100088.59;;;4.12;51.81
70833;BME280;58452;59.418;17.962;2023-03-03T16:01:23;100093.47;;;4.15;52.69
70833;BME280;58452;59.418;17.962;2023-03-03T16:03:59;100090.91;;;4.15;51.81
70833;BME280;58452;59.418;17.962;2023-03-03T16:11:51;100122.84;;;4.31;57.68
70833;BME280;58452;59.418;17.962;2023-03-03T16:16:54;100077.69;;;4.21;55.50
70833;BME280;58452;59.418;17.962;2023-03-03T16:25:13;100103.47;;;4.07;60.62
70833;BME280;58452;59.418;17.962;2023-03-03T16:28:33;100099.97;;;3.97;61.97
70833;BME280;58452;59.418;17.962;2023-03-03T16:33:45;100086.84;;;4.23;58.36
70833;BME280;58452;59.418;17.962;2023-03-03T16:36:29;100097.06;;;4.23;58.78
70833;BME280;58452;59.418;17.962;2023-03-03T16:39:13;100088.59;;;4.23;60.14
70833;BME280;58452;59.418;17.962;2023-03-03T16:42:02;100081.41;;;4.28;59.78
70833;BME280;58452;59.418;17.962;2023-03-03T16:45:04;100052.81;;;4.34;59.78
70833;BME280;58452;59.418;17.962;2023-03-03T16:47:40;100045.75;;;4.26;60.45
70833;BME280;58452;59.418;17.962;2023-03-03T17:01:16;100050.53;;;4.20;57.72
70833;BME280;58452;59.418;17.962;2023-03-03T17:06:44;100058.66;;;4.25;55.14
70833;BME280;58452;59.418;17.962;2023-03-03T17:14:51;100049.13;;;4.27;56.23
70833;BME280;58452;59.418;17.962;2023-03-03T17:25:16;100032.91;;;4.06;59.45
70833;BME280;58452;59.418;17.962;2023-03-03T17:28:33;100038.91;;;4.16;58.94
70833;BME280;58452;59.418;17.962;2023-03-03T17:36:29;100038.25;;;4.03;58.65
70833;BME280;58452;59.418;17.962;2023-03-03T17:42:24;100039.16;;;4.02;56.63
70833;BME280;58452;59.418;17.962;2023-03-03T17:44:59;100033.72;;;4.06;55.41
70833;BME280;58452;59.418;17.962;2023-03-03T17:55:46;100043.53;;;4.33;47.27